createdAt,value
2018-02-14T05:34:10.798Z,45.86
2018-02-14T05:35:19.474Z,47.01
2018-02-14T05:36:28.160Z,46.81
2018-02-14T05:37:36.845Z,46.81
2018-02-14T05:38:45.795Z,46.72
2018-02-14T05:39:54.746Z,46.43
2018-02-14T05:41:03.699Z,46.62
2018-02-14T05:42:12.910Z,46.62
2018-02-14T05:43:21.867Z,46.62
2018-02-14T05:44:30.903Z,46.53
2018-02-14T05:45:39.859Z,46.72
2018-02-14T05:46:48.544Z,46.81
2018-02-14T05:47:57.494Z,46.81
2018-02-14T05:49:06.731Z,46.81
2018-02-14T05:50:15.718Z,46.62
2018-02-14T05:51:24.940Z,46.14
2018-02-14T05:52:33.631Z,46.34
2018-02-14T05:53:42.591Z,46.24
2018-02-14T05:54:51.813Z,46.17
2018-02-14T05:56:00.505Z,45.78
2018-02-14T05:57:09.196Z,45.68
2018-02-14T05:58:18.157Z,45.68
2018-02-14T05:59:27.109Z,45.68
2018-02-14T06:00:36.335Z,45.78
2018-02-14T06:01:45.287Z,45.88
2018-02-14T06:02:53.974Z,45.3
2018-02-14T06:04:02.936Z,45.11
2018-02-14T06:05:11.621Z,44.92
2018-02-14T06:06:20.579Z,45.01
2018-02-14T06:07:29.539Z,45.14
2018-02-14T06:08:38.767Z,44.65
2018-02-14T06:09:47.453Z,44.17
2018-02-14T06:10:56.139Z,43.5
2018-02-14T06:12:05.359Z,43.79
2018-02-14T06:13:14.044Z,43.48
2018-02-14T06:14:23.267Z,43.19
2018-02-14T06:15:32.229Z,43.19
2018-02-14T06:16:41.450Z,43.29
2018-02-14T06:17:50.406Z,43.48
2018-02-14T06:18:59.094Z,43.57
2018-02-14T06:20:08.051Z,43.29
2018-02-14T06:21:17.273Z,43.48
2018-02-14T06:22:25.962Z,43.38
2018-02-14T06:23:34.649Z,43.6
2018-02-14T06:24:43.339Z,43.5
2018-02-14T06:25:52.024Z,43.4
2018-02-14T06:27:00.717Z,43.4
2018-02-14T06:28:09.402Z,43.31
2018-02-14T06:29:18.091Z,43.7
2018-02-14T06:30:26.779Z,43.6
2018-02-14T06:31:35.734Z,43.31
2018-02-14T06:32:44.424Z,43.5
2018-02-14T06:33:53.112Z,43.6
2018-02-14T06:35:02.335Z,43.5
2018-02-14T06:36:11.560Z,43.31
2018-02-14T06:37:20.514Z,43.5
2018-02-14T06:38:29.738Z,43.6
2018-02-14T06:39:38.425Z,43.33
2018-02-14T06:40:47.922Z,43.31
2018-02-14T06:41:57.138Z,43.33
2018-02-14T06:43:05.829Z,43.33
2018-02-14T06:44:15.052Z,43.14
2018-02-14T06:45:24.275Z,42.94
2018-02-14T06:46:33.231Z,42.85
2018-02-14T06:47:42.186Z,43.14
2018-02-14T06:48:51.139Z,43.04
2018-02-14T06:50:00.632Z,42.66
2018-02-14T06:51:09.858Z,43.04
2018-02-14T06:52:19.359Z,43.04
2018-02-14T06:53:28.848Z,43.04
2018-02-14T06:54:37.797Z,42.85
2018-02-14T06:55:46.483Z,42.76
2018-02-14T06:56:55.444Z,42.76
2018-02-14T06:58:04.396Z,42.94
2018-02-14T06:59:13.612Z,42.85
2018-02-14T07:00:22.298Z,42.94
2018-02-14T07:01:30.985Z,43.04
2018-02-14T07:02:40.205Z,42.94
2018-02-14T07:03:49.162Z,42.76
2018-02-14T07:04:57.855Z,43.04
2018-02-14T07:06:06.542Z,43.14
2018-02-14T07:07:15.501Z,43.04
2018-02-14T07:08:24.718Z,43.04
2018-02-14T07:09:33.680Z,43.04
2018-02-14T07:10:42.633Z,43.14
2018-02-14T07:11:51.914Z,42.94
2018-02-14T07:13:01.138Z,42.76
2018-02-14T07:14:10.091Z,42.56
2018-02-14T07:15:18.778Z,42.27
2018-02-14T07:16:27.733Z,42.56
2018-02-14T07:17:36.422Z,42.47
2018-02-14T07:18:45.115Z,42.47
2018-02-14T07:19:54.066Z,42.37
2018-02-14T07:21:03.035Z,42.47
2018-02-14T07:22:12.257Z,42.47
2018-02-14T07:23:21.484Z,42.56
2018-02-14T07:24:30.170Z,42.66
2018-02-14T07:25:38.867Z,42.47
2018-02-14T07:26:47.824Z,42.56
2018-02-14T07:27:56.513Z,42.66
2018-02-14T07:29:05.471Z,42.56
2018-02-14T07:30:14.166Z,42.56
2018-02-14T07:31:22.854Z,42.66
2018-02-14T07:32:32.076Z,42.66
2018-02-14T07:33:40.762Z,42.76
2018-02-14T07:34:49.719Z,42.76
2018-02-14T07:35:58.407Z,42.76
2018-02-14T07:37:07.093Z,42.76
2018-02-14T07:38:16.054Z,42.76
2018-02-14T07:39:25.541Z,42.76
2018-02-14T07:40:34.233Z,42.85
2018-02-14T07:41:42.922Z,42.56
2018-02-14T07:42:51.873Z,42.76
2018-02-14T07:44:00.831Z,42.76
2018-02-14T07:45:09.794Z,42.85
2018-02-14T07:46:18.743Z,42.85
2018-02-14T07:47:27.432Z,42.76
2018-02-14T07:48:36.389Z,42.66
2018-02-14T07:49:45.093Z,42.76
2018-02-14T07:50:54.585Z,42.56
2018-02-14T07:52:03.548Z,42.47
2018-02-14T07:53:12.766Z,42.37
2018-02-14T07:54:21.453Z,42.27
2018-02-14T07:55:30.136Z,42.56
2018-02-14T07:56:39.090Z,42.76
2018-02-14T07:57:48.050Z,42.76
2018-02-14T07:58:57.273Z,42.76
2018-02-14T08:00:05.961Z,42.56
2018-02-14T08:01:14.915Z,42.85
2018-02-14T08:02:24.139Z,42.56
2018-02-14T08:03:33.359Z,42.47
2018-02-14T08:04:42.320Z,42.76
2018-02-14T08:05:51.005Z,43.16
2018-02-14T08:06:59.960Z,42.85
2018-02-14T08:08:08.656Z,42.94
2018-02-14T08:09:17.609Z,42.94
2018-02-14T08:10:26.566Z,42.94
2018-02-14T08:11:35.789Z,42.76
2018-02-14T08:12:44.748Z,42.94
2018-02-14T08:13:53.438Z,42.94
2018-02-14T08:15:02.129Z,42.94
2018-02-14T08:16:11.086Z,42.94
2018-02-14T08:17:20.310Z,42.76
2018-02-14T08:18:29.004Z,42.66
2018-02-14T08:19:37.962Z,42.66
2018-02-14T08:20:46.654Z,42.66
2018-02-14T08:21:56.239Z,42.76
2018-02-14T08:23:05.198Z,42.76
2018-02-14T08:24:13.889Z,42.85
2018-02-14T08:25:23.109Z,42.85
2018-02-14T08:26:31.798Z,42.94
2018-02-14T08:27:40.488Z,42.85
2018-02-14T08:28:49.178Z,42.66
2018-02-14T08:29:57.868Z,42.66
2018-02-14T08:31:06.835Z,42.85
2018-02-14T08:32:15.790Z,42.76
2018-02-14T08:33:25.021Z,43.14
2018-02-14T08:34:33.710Z,42.76
2018-02-14T08:35:42.402Z,43.14
2018-02-14T08:36:51.086Z,43.14
2018-02-14T08:37:59.775Z,42.76
2018-02-14T08:39:08.732Z,42.94
2018-02-14T08:40:17.420Z,43.23
2018-02-14T08:41:26.381Z,42.85
2018-02-14T08:42:35.070Z,42.76
2018-02-14T08:43:43.766Z,43.14
2018-02-14T08:44:52.988Z,42.87
2018-02-14T08:46:01.944Z,42.85
2018-02-14T08:47:10.900Z,42.76
2018-02-14T08:48:19.588Z,43.04
2018-02-14T08:49:28.279Z,42.77
2018-02-14T08:50:36.977Z,42.97
2018-02-14T08:51:45.662Z,43.04
2018-02-14T08:52:54.883Z,43.07
2018-02-14T08:54:03.845Z,43.07
2018-02-14T08:55:12.533Z,42.94
2018-02-14T08:56:21.490Z,42.76
2018-02-14T08:57:30.715Z,42.87
2018-02-14T08:58:39.669Z,43.04
2018-02-14T08:59:48.890Z,43.04
2018-02-14T09:00:57.581Z,42.85
2018-02-14T09:02:06.544Z,42.68
2018-02-14T09:03:15.499Z,42.85
2018-02-14T09:04:24.453Z,42.97
2018-02-14T09:05:33.411Z,42.68
2018-02-14T09:06:42.635Z,43.04
2018-02-14T09:07:51.591Z,43.04
2018-02-14T09:09:00.275Z,43.07
2018-02-14T09:10:09.237Z,43.07
2018-02-14T09:11:17.924Z,43.04
2018-02-14T09:12:26.879Z,43.07
2018-02-14T09:13:35.838Z,43.04
2018-02-14T09:14:44.795Z,43.16
2018-02-14T09:15:53.824Z,42.87
2018-02-14T09:17:02.511Z,42.66
2018-02-14T09:18:11.732Z,42.87
2018-02-14T09:19:20.420Z,43.07
2018-02-14T09:20:29.109Z,42.76
2018-02-14T09:21:38.594Z,43.07
2018-02-14T09:22:47.554Z,43.35
2018-02-14T09:23:56.242Z,43.23
2018-02-14T09:25:05.246Z,43.64
2018-02-14T09:26:14.159Z,43.54
2018-02-14T09:27:23.116Z,43.74
2018-02-14T09:28:31.805Z,43.64
2018-02-14T09:29:40.497Z,43.64
2018-02-14T09:30:49.181Z,43.45
2018-02-14T09:31:58.141Z,43.93
2018-02-14T09:33:07.625Z,43.64
2018-02-14T09:34:16.580Z,43.64
2018-02-14T09:35:25.266Z,44.22
2018-02-14T09:36:34.221Z,44.6
2018-02-14T09:37:43.446Z,44.7
2018-02-14T09:38:52.131Z,44.02
2018-02-14T09:40:01.083Z,44.31
2018-02-14T09:41:10.301Z,44.12
2018-02-14T09:42:18.994Z,44.6
2018-02-14T09:43:27.967Z,44.7
2018-02-14T09:44:37.205Z,44.79
2018-02-14T09:45:46.160Z,44.7
2018-02-14T09:46:55.114Z,44.51
2018-02-14T09:48:03.805Z,44.31
2018-02-14T09:49:12.761Z,44.41
2018-02-14T09:50:21.980Z,44.31
2018-02-14T09:51:30.673Z,44.22
2018-02-14T09:52:39.627Z,44.41
2018-02-14T09:53:48.852Z,44.6
2018-02-14T09:54:57.806Z,44.51
2018-02-14T09:56:06.492Z,44.6
2018-02-14T09:57:15.445Z,44.6
2018-02-14T09:58:24.401Z,44.6
2018-02-14T09:59:33.096Z,44.12
2018-02-14T10:00:42.053Z,44.22
2018-02-14T10:01:51.012Z,44.22
2018-02-14T10:02:59.703Z,44.22
2018-02-14T10:04:08.920Z,44.12
2018-02-14T10:05:17.875Z,43.74
2018-02-14T10:06:26.635Z,43.62
2018-02-14T10:07:35.327Z,43.84
2018-02-14T10:08:44.014Z,43.54
2018-02-14T10:09:53.236Z,43.54
2018-02-14T10:11:02.459Z,43.54
2018-02-14T10:12:11.147Z,43.74
2018-02-14T10:13:19.834Z,43.71
2018-02-14T10:14:28.525Z,43.93
2018-02-14T10:15:37.478Z,43.62
2018-02-14T10:16:46.434Z,43.62
2018-02-14T10:17:55.391Z,43.64
2018-02-14T10:19:04.607Z,43.62
2018-02-14T10:20:13.297Z,43.45
2018-02-14T10:21:21.992Z,43.35
2018-02-14T10:22:30.677Z,43.33
2018-02-14T10:23:39.366Z,43.26
2018-02-14T10:24:48.057Z,43.07
2018-02-14T10:25:57.014Z,43.07
2018-02-14T10:27:05.704Z,43.07
2018-02-14T10:28:14.666Z,43.26
2018-02-14T10:29:23.622Z,42.97
2018-02-14T10:30:32.579Z,43.16
2018-02-14T10:31:41.537Z,42.87
2018-02-14T10:32:50.230Z,42.77
2018-02-14T10:33:59.721Z,43.16
2018-02-14T10:35:08.673Z,42.77
2018-02-14T10:36:17.628Z,42.39
2018-02-14T10:37:26.852Z,42.49
2018-02-14T10:38:35.842Z,42.49
2018-02-14T10:39:44.795Z,42.49
2018-02-14T10:40:53.479Z,42.49
2018-02-14T10:42:02.441Z,42.87
2018-02-14T10:43:11.396Z,43.07
2018-02-14T10:44:20.083Z,42.77
2018-02-14T10:45:29.040Z,42.77
2018-02-14T10:46:37.993Z,42.77
2018-02-14T10:47:46.977Z,43.16
2018-02-14T10:48:56.008Z,42.77
2018-02-14T10:50:04.964Z,43.16
2018-02-14T10:51:14.192Z,43.16
2018-02-14T10:52:22.881Z,42.77
2018-02-14T10:53:31.569Z,42.58
2018-02-14T10:54:40.330Z,42.39
2018-02-14T10:55:49.290Z,42.8
2018-02-14T10:56:57.973Z,42.58
2018-02-14T10:58:06.660Z,42.7
2018-02-14T10:59:15.621Z,42.89
2018-02-14T11:00:24.310Z,42.7
2018-02-14T11:01:33.000Z,42.99
2018-02-14T11:02:41.689Z,42.6
2018-02-14T11:03:50.376Z,42.6
2018-02-14T11:04:59.332Z,42.32
2018-02-14T11:06:08.361Z,42.03
2018-02-14T11:07:17.318Z,42.03
2018-02-14T11:08:26.007Z,42.03
2018-02-14T11:09:34.696Z,41.83
2018-02-14T11:10:43.650Z,42.22
2018-02-14T11:11:52.872Z,42.12
2018-02-14T11:13:01.830Z,42.03
2018-02-14T11:14:10.785Z,42.12
2018-02-14T11:15:19.740Z,42.12
2018-02-14T11:16:28.689Z,42.32
2018-02-14T11:17:38.175Z,42.03
2018-02-14T11:18:46.863Z,41.93
2018-02-14T11:19:55.553Z,41.93
2018-02-14T11:21:04.242Z,41.74
2018-02-14T11:22:12.930Z,41.55
2018-02-14T11:23:21.909Z,41.93
2018-02-14T11:24:30.863Z,42.22
2018-02-14T11:25:39.819Z,42.03
2018-02-14T11:26:48.512Z,41.74
2018-02-14T11:27:57.462Z,41.55
2018-02-14T11:29:06.421Z,41.64
2018-02-14T11:30:15.113Z,41.83
2018-02-14T11:31:23.804Z,41.93
2018-02-14T11:32:32.757Z,41.93
2018-02-14T11:33:42.136Z,41.83
2018-02-14T11:34:50.665Z,41.83
2018-02-14T11:35:59.354Z,41.74
2018-02-14T11:37:08.742Z,41.64
2018-02-14T11:38:17.700Z,41.74
2018-02-14T11:39:26.658Z,41.55
2018-02-14T11:40:35.346Z,41.83
2018-02-14T11:41:44.568Z,41.55
2018-02-14T11:42:53.600Z,41.56
2018-02-14T11:44:02.289Z,41.45
2018-02-14T11:45:11.507Z,41.47
2018-02-14T11:46:20.195Z,41.47
2018-02-14T11:47:28.883Z,41.47
2018-02-14T11:48:37.577Z,41.35
2018-02-14T11:49:46.270Z,41.64
2018-02-14T11:50:55.226Z,41.35
2018-02-14T11:52:04.448Z,41.45
2018-02-14T11:53:13.408Z,41.38
2018-02-14T11:54:22.361Z,41.47
2018-02-14T11:55:31.356Z,41.18
2018-02-14T11:56:40.594Z,41.38
2018-02-14T11:57:49.554Z,41.26
2018-02-14T11:58:58.243Z,41.16
2018-02-14T12:00:07.198Z,41.08
2018-02-14T12:01:15.885Z,41.38
2018-02-14T12:02:25.113Z,41.28
2018-02-14T12:03:33.793Z,41.08
2018-02-14T12:04:42.753Z,41.18
2018-02-14T12:05:51.439Z,41.16
2018-02-14T12:07:00.397Z,41.18
2018-02-14T12:08:09.355Z,41.18
2018-02-14T12:09:18.585Z,41.38
2018-02-14T12:10:29.006Z,40.99
2018-02-14T12:11:37.962Z,40.99
2018-02-14T12:12:46.654Z,40.99
2018-02-14T12:13:55.615Z,40.99
2018-02-14T12:15:04.575Z,40.99
2018-02-14T12:16:13.261Z,41.18
2018-02-14T12:17:22.483Z,41.18
2018-02-14T12:18:31.709Z,41.28
2018-02-14T12:19:40.696Z,41.18
2018-02-14T12:20:49.351Z,41.28
2018-02-14T12:21:58.306Z,41.08
2018-02-14T12:23:06.992Z,41.08
2018-02-14T12:24:15.940Z,40.99
2018-02-14T12:25:24.630Z,41.18
2018-02-14T12:26:33.585Z,41.18
2018-02-14T12:27:42.272Z,41.08
2018-02-14T12:28:50.961Z,41.28
2018-02-14T12:29:59.917Z,40.89
2018-02-14T12:31:09.139Z,40.61
2018-02-14T12:32:18.095Z,40.8
2018-02-14T12:33:27.323Z,40.51
2018-02-14T12:34:36.283Z,40.41
2018-02-14T12:35:44.973Z,40.51
2018-02-14T12:36:54.194Z,40.51
2018-02-14T12:38:03.150Z,40.51
2018-02-14T12:39:11.843Z,40.61
2018-02-14T12:40:21.074Z,40.61
2018-02-14T12:41:30.038Z,40.51
2018-02-14T12:42:39.266Z,40.51
2018-02-14T12:43:47.952Z,40.51
2018-02-14T12:44:56.908Z,40.41
2018-02-14T12:46:05.599Z,40.51
2018-02-14T12:47:14.555Z,40.41
2018-02-14T12:48:24.049Z,40.51
2018-02-14T12:49:32.741Z,40.31
2018-02-14T12:50:41.430Z,40.31
2018-02-14T12:51:50.395Z,40.41
2018-02-14T12:52:59.083Z,40.41
2018-02-14T12:54:08.045Z,40.41
2018-02-14T12:55:16.738Z,40.31
2018-02-14T12:56:25.430Z,40.41
2018-02-14T12:57:34.383Z,40.61
2018-02-14T12:58:43.071Z,40.51
2018-02-14T12:59:51.757Z,40.41
2018-02-14T13:01:00.710Z,40.51
2018-02-14T13:02:09.947Z,40.51
2018-02-14T13:03:18.907Z,40.41
2018-02-14T13:04:27.598Z,40.61
2018-02-14T13:05:36.290Z,40.51
2018-02-14T13:06:45.243Z,40.51
2018-02-14T13:07:53.929Z,40.7
2018-02-14T13:09:02.882Z,40.61
2018-02-14T13:10:11.841Z,40.41
2018-02-14T13:11:20.795Z,40.22
2018-02-14T13:12:29.484Z,40.61
2018-02-14T13:13:38.479Z,40.7
2018-02-14T13:14:47.677Z,40.12
2018-02-14T13:15:56.626Z,40.41
2018-02-14T13:17:05.586Z,40.31
2018-02-14T13:18:14.805Z,40.8
2018-02-14T13:19:24.035Z,40.51
2018-02-14T13:20:32.995Z,40.51
2018-02-14T13:21:41.950Z,40.49
2018-02-14T13:22:50.910Z,40.22
2018-02-14T13:24:00.134Z,40.41
2018-02-14T13:25:08.822Z,40.51
2018-02-14T13:26:17.788Z,40.22
2018-02-14T13:27:26.476Z,40.41
2018-02-14T13:28:35.441Z,40.2
2018-02-14T13:29:44.935Z,40.22
2018-02-14T13:30:53.899Z,40.51
2018-02-14T13:32:03.120Z,40.41
2018-02-14T13:33:12.076Z,40.22
2018-02-14T13:34:21.299Z,40.41
2018-02-14T13:35:30.256Z,40.12
2018-02-14T13:36:39.475Z,40.58
2018-02-14T13:37:48.427Z,40.31
2018-02-14T13:38:57.381Z,40.49
2018-02-14T13:40:06.067Z,40.49
2018-02-14T13:41:15.292Z,40.41
2018-02-14T13:42:24.511Z,40.49
2018-02-14T13:43:33.473Z,40.3
2018-02-14T13:44:42.967Z,40.51
2018-02-14T13:45:51.924Z,40.49
2018-02-14T13:47:00.878Z,40.58
2018-02-14T13:48:09.828Z,40.7
2018-02-14T13:49:18.778Z,40.49
2018-02-14T13:50:27.469Z,40.49
2018-02-14T13:51:36.430Z,40.61
2018-02-14T13:52:45.387Z,40.61
2018-02-14T13:53:54.078Z,40.58
2018-02-14T13:55:02.767Z,40.49
2018-02-14T13:56:11.998Z,40.58
2018-02-14T13:57:20.688Z,40.58
2018-02-14T13:58:29.641Z,40.3
2018-02-14T13:59:38.600Z,40.58
2018-02-14T14:00:47.287Z,40.49
2018-02-14T14:01:56.503Z,40.49
2018-02-14T14:03:05.459Z,40.49
2018-02-14T14:04:14.419Z,40.39
2018-02-14T14:05:23.370Z,40.39
2018-02-14T14:06:32.879Z,40.58
2018-02-14T14:07:41.806Z,40.39
2018-02-14T14:08:50.761Z,40.3
2018-02-14T14:09:59.452Z,40.58
2018-02-14T14:11:08.409Z,40.39
2018-02-14T14:12:17.100Z,40.3
2018-02-14T14:13:25.787Z,40.39
2018-02-14T14:14:35.009Z,40.39
2018-02-14T14:15:43.699Z,40.3
2018-02-14T14:16:52.391Z,40.3
2018-02-14T14:18:01.081Z,40.3
2018-02-14T14:19:09.770Z,40.39
2018-02-14T14:20:18.462Z,40.39
2018-02-14T14:21:27.690Z,40.39
2018-02-14T14:22:36.702Z,40.39
2018-02-14T14:23:45.940Z,40.39
2018-02-14T14:24:54.893Z,40.39
2018-02-14T14:26:03.584Z,40.49
2018-02-14T14:27:13.078Z,40.39
2018-02-14T14:28:21.766Z,40.3
2018-02-14T14:29:30.460Z,40.3
2018-02-14T14:30:39.417Z,40.3
2018-02-14T14:31:48.642Z,40.39
2018-02-14T14:32:57.602Z,40.3
2018-02-14T14:34:06.557Z,40.01
2018-02-14T14:35:15.246Z,39.81
2018-02-14T14:36:23.939Z,39.91
2018-02-14T14:37:32.933Z,40.11
2018-02-14T14:38:41.623Z,40.11
2018-02-14T14:39:50.309Z,40.39
2018-02-14T14:40:59.266Z,40.3
2018-02-14T14:42:08.517Z,40.49
2018-02-14T14:43:17.459Z,40.49
2018-02-14T14:44:26.456Z,40.49
2018-02-14T14:45:35.684Z,40.58
2018-02-14T14:46:44.901Z,40.58
2018-02-14T14:47:53.592Z,40.11
2018-02-14T14:49:02.821Z,40.49
2018-02-14T14:50:11.508Z,40.11
2018-02-14T14:51:20.299Z,40.2
2018-02-14T14:52:29.256Z,40.58
2018-02-14T14:53:38.479Z,40.49
2018-02-14T14:54:47.437Z,40.49
2018-02-14T14:55:56.658Z,40.58
2018-02-14T14:57:05.609Z,40.39
2018-02-14T14:58:14.831Z,41.26
2018-02-14T14:59:23.522Z,41.26
2018-02-14T15:00:32.212Z,41.16
2018-02-14T15:01:41.167Z,41.16
2018-02-14T15:02:49.856Z,41.26
2018-02-14T15:03:58.547Z,41.26
2018-02-14T15:05:07.769Z,41.16
2018-02-14T15:06:16.725Z,40.68
2018-02-14T15:07:25.413Z,40.58
2018-02-14T15:08:34.103Z,40.88
2018-02-14T15:09:42.793Z,41.35
2018-02-14T15:10:51.479Z,41.26
2018-02-14T15:12:00.697Z,41.06
2018-02-14T15:13:09.386Z,40.2
2018-02-14T15:14:18.342Z,40.39
2018-02-14T15:15:27.033Z,40.2
2018-02-14T15:16:35.990Z,40.01
2018-02-14T15:17:44.688Z,39.91
2018-02-14T15:18:53.648Z,39.81
2018-02-14T15:20:02.607Z,39.91
2018-02-14T15:21:11.566Z,39.72
2018-02-14T15:22:20.788Z,39.81
2018-02-14T15:23:29.747Z,40.01
2018-02-14T15:24:38.708Z,39.91
2018-02-14T15:25:47.399Z,40.01
2018-02-14T15:26:56.621Z,39.04
2018-02-14T15:28:05.580Z,39.24
2018-02-14T15:29:14.836Z,39.72
2018-02-14T15:30:23.794Z,40.01
2018-02-14T15:31:32.481Z,40.3
2018-02-14T15:32:41.433Z,40.49
2018-02-14T15:33:50.115Z,41.16
2018-02-14T15:34:58.807Z,40.88
2018-02-14T15:36:07.761Z,41.06
2018-02-14T15:37:16.719Z,41.64
2018-02-14T15:38:26.206Z,41.45
2018-02-14T15:39:34.894Z,41.74
2018-02-14T15:40:43.586Z,42.03
2018-02-14T15:41:52.298Z,42.12
2018-02-14T15:43:00.960Z,42.5
2018-02-14T15:44:10.177Z,42.8
2018-02-14T15:45:18.863Z,42.6
2018-02-14T15:46:28.090Z,42.12
2018-02-14T15:47:37.046Z,41.93
2018-02-14T15:48:45.999Z,41.26
2018-02-14T15:49:55.224Z,40.01
2018-02-14T15:51:03.913Z,39.7
2018-02-14T15:52:13.137Z,39.89
2018-02-14T15:53:21.825Z,39.89
2018-02-14T15:54:30.511Z,39.79
2018-02-14T15:55:39.738Z,39.89
2018-02-14T15:56:48.694Z,40.18
2018-02-14T15:57:57.919Z,40.18
2018-02-14T15:59:06.609Z,40.95
2018-02-14T16:00:15.652Z,41.14
2018-02-14T16:01:24.612Z,41.26
2018-02-14T16:02:33.845Z,41.35
2018-02-14T16:03:43.066Z,41.24
2018-02-14T16:04:51.753Z,41.55
2018-02-14T16:06:00.711Z,41.35
2018-02-14T16:07:09.666Z,41.24
2018-02-14T16:08:18.620Z,41.83
2018-02-14T16:09:27.574Z,41.55
2018-02-14T16:10:36.534Z,41.55
2018-02-14T16:11:45.218Z,41.64
2018-02-14T16:12:53.909Z,41.74
2018-02-14T16:14:02.599Z,41.64
2018-02-14T16:15:11.551Z,41.93
2018-02-14T16:16:20.775Z,41.72
2018-02-14T16:17:29.734Z,41.74
2018-02-14T16:18:38.693Z,41.74
2018-02-14T16:19:47.918Z,41.74
2018-02-14T16:20:56.624Z,41.74
2018-02-14T16:22:05.313Z,41.74
2018-02-14T16:23:14.010Z,41.83
2018-02-14T16:24:22.704Z,41.74
2018-02-14T16:25:31.396Z,41.35
2018-02-14T16:26:40.354Z,41.35
2018-02-14T16:27:49.575Z,41.35
2018-02-14T16:28:58.262Z,41.55
2018-02-14T16:30:07.494Z,41.64
2018-02-14T16:31:16.451Z,41.26
2018-02-14T16:32:25.944Z,41.45
2018-02-14T16:33:34.632Z,41.55
2018-02-14T16:34:43.586Z,41.35
2018-02-14T16:35:52.533Z,41.45
2018-02-14T16:37:01.751Z,41.55
2018-02-14T16:38:11.233Z,41.35
2018-02-14T16:39:19.916Z,41.26
2018-02-14T16:40:28.872Z,41.35
2018-02-14T16:41:37.823Z,41.55
2018-02-14T16:42:47.315Z,41.55
2018-02-14T16:43:56.270Z,41.16
2018-02-14T16:45:05.224Z,41.16
2018-02-14T16:46:14.192Z,41.35
2018-02-14T16:47:23.677Z,41.16
2018-02-14T16:48:32.361Z,41.06
2018-02-14T16:49:41.559Z,41.16
2018-02-14T16:50:50.456Z,41.06
2018-02-14T16:51:59.413Z,41.35
2018-02-14T16:53:08.106Z,41.16
2018-02-14T16:54:17.329Z,41.26
2018-02-14T16:55:26.019Z,40.97
2018-02-14T16:56:34.977Z,41.35
2018-02-14T16:57:43.666Z,40.97
2018-02-14T16:58:52.893Z,41.26
2018-02-14T17:00:01.586Z,41.06
2018-02-14T17:01:10.544Z,41.16
2018-02-14T17:02:19.232Z,41.16
2018-02-14T17:03:27.922Z,41.26
2018-02-14T17:04:36.613Z,41.26
2018-02-14T17:05:45.298Z,41.06
2018-02-14T17:06:54.255Z,41.06
2018-02-14T17:08:02.944Z,41.26
2018-02-14T17:09:11.897Z,41.26
2018-02-14T17:10:20.848Z,41.55
2018-02-14T17:11:29.805Z,41.55
2018-02-14T17:12:38.492Z,41.33
2018-02-14T17:13:47.179Z,41.35
2018-02-14T17:14:56.131Z,41.45
2018-02-14T17:16:04.818Z,41.55
2018-02-14T17:17:14.046Z,41.55
2018-02-14T17:18:22.733Z,41.35
2018-02-14T17:19:31.728Z,41.26
2018-02-14T17:20:40.419Z,41.55
2018-02-14T17:21:49.432Z,41.35
2018-02-14T17:22:58.486Z,41.35
2018-02-14T17:24:07.490Z,41.55
2018-02-14T17:25:16.180Z,41.55
2018-02-14T17:26:24.873Z,41.45
2018-02-14T17:27:34.091Z,41.26
2018-02-14T17:28:43.401Z,41.55
2018-02-14T17:29:52.065Z,41.55
2018-02-14T17:31:00.753Z,41.26
2018-02-14T17:32:09.976Z,41.35
2018-02-14T17:33:18.668Z,41.35
2018-02-14T17:34:27.623Z,41.35
2018-02-14T17:35:36.576Z,41.35
2018-02-14T17:36:45.261Z,41.35
2018-02-14T17:37:53.948Z,41.26
2018-02-14T17:39:03.171Z,41.45
2018-02-14T17:40:11.863Z,41.26
2018-02-14T17:41:20.555Z,41.35
2018-02-14T17:42:29.244Z,41.35
2018-02-14T17:43:38.200Z,41.45
2018-02-14T17:44:46.891Z,41.35
2018-02-14T17:45:56.113Z,41.45
2018-02-14T17:47:05.071Z,41.45
2018-02-14T17:48:13.759Z,41.55
2018-02-14T17:49:22.740Z,41.35
2018-02-14T17:50:31.410Z,41.35
2018-02-14T17:51:40.099Z,41.55
2018-02-14T17:52:49.054Z,41.43
2018-02-14T17:53:58.012Z,41.45
2018-02-14T17:55:07.229Z,41.45
2018-02-14T17:56:16.451Z,41.45
2018-02-14T17:57:25.142Z,41.35
2018-02-14T17:58:34.096Z,41.55
2018-02-14T17:59:43.049Z,41.33
2018-02-14T18:00:51.745Z,41.45
2018-02-14T18:02:00.707Z,41.45
2018-02-14T18:03:09.956Z,41.45
2018-02-14T18:04:18.645Z,41.45
2018-02-14T18:05:28.136Z,41.45
2018-02-14T18:06:37.090Z,41.26
2018-02-14T18:07:46.045Z,41.35
2018-02-14T18:08:55.002Z,41.26
2018-02-14T18:10:03.691Z,41.55
2018-02-14T18:11:12.378Z,41.55
2018-02-14T18:12:21.334Z,41.35
2018-02-14T18:13:30.288Z,41.35
2018-02-14T18:14:39.245Z,41.45
2018-02-14T18:15:48.736Z,41.53
2018-02-14T18:16:57.423Z,41.45
2018-02-14T18:18:06.647Z,41.26
2018-02-14T18:19:15.332Z,41.55
2018-02-14T18:20:24.019Z,41.45
2018-02-14T18:21:32.711Z,41.24
2018-02-14T18:22:41.667Z,41.26
2018-02-14T18:23:50.623Z,41.45
2018-02-14T18:24:59.847Z,41.45
2018-02-14T18:26:08.537Z,41.35
2018-02-14T18:27:17.495Z,41.33
2018-02-14T18:28:26.451Z,41.24
2018-02-14T18:29:35.409Z,41.45
2018-02-14T18:30:44.100Z,41.35
2018-02-14T18:31:52.796Z,41.35
2018-02-14T18:33:02.017Z,41.43
2018-02-14T18:34:10.975Z,41.43
2018-02-14T18:35:19.663Z,41.45
2018-02-14T18:36:28.615Z,41.45
2018-02-14T18:37:37.571Z,41.53
2018-02-14T18:38:46.261Z,41.55
2018-02-14T18:39:54.955Z,41.62
2018-02-14T18:41:04.235Z,41.35
2018-02-14T18:42:13.458Z,41.33
2018-02-14T18:43:22.418Z,41.53
2018-02-14T18:44:31.371Z,41.43
2018-02-14T18:45:40.595Z,41.64
2018-02-14T18:46:49.815Z,41.55
2018-02-14T18:47:58.508Z,41.45
2018-02-14T18:49:07.198Z,41.53
2018-02-14T18:50:16.424Z,41.35
2018-02-14T18:51:25.406Z,41.43
2018-02-14T18:52:34.068Z,41.33
2018-02-14T18:53:43.024Z,41.33
2018-02-14T18:54:51.983Z,41.53
2018-02-14T18:56:01.736Z,41.26
2018-02-14T18:57:10.426Z,41.43
2018-02-14T18:58:19.116Z,41.33
2018-02-14T18:59:27.805Z,41.53
2018-02-14T19:00:36.760Z,41.26
2018-02-14T19:01:45.451Z,41.24
2018-02-14T19:02:54.404Z,41.43
2018-02-14T19:04:03.630Z,41.43
2018-02-14T19:05:12.594Z,41.62
2018-02-14T19:06:21.547Z,41.45
2018-02-14T19:07:30.239Z,41.43
2018-02-14T19:08:39.195Z,41.33
2018-02-14T19:09:48.422Z,41.64
2018-02-14T19:10:57.111Z,41.43
2018-02-14T19:12:05.802Z,41.45
2018-02-14T19:13:14.493Z,41.43
2018-02-14T19:14:23.450Z,41.43
2018-02-14T19:15:32.409Z,41.33
2018-02-14T19:16:41.100Z,41.33
2018-02-14T19:17:49.793Z,41.35
2018-02-14T19:18:58.481Z,41.53
2018-02-14T19:20:07.442Z,41.35
2018-02-14T19:21:16.402Z,41.35
2018-02-14T19:22:25.358Z,41.33
2018-02-14T19:23:34.576Z,41.43
2018-02-14T19:24:43.266Z,41.43
2018-02-14T19:25:52.218Z,41.53
2018-02-14T19:27:00.913Z,41.74
2018-02-14T19:28:09.874Z,42
2018-02-14T19:29:18.836Z,41.83
2018-02-14T19:30:28.062Z,41.82
2018-02-14T19:31:37.472Z,42.12
2018-02-14T19:32:47.065Z,42.12
2018-02-14T19:33:56.019Z,42
2018-02-14T19:35:05.024Z,42.1
2018-02-14T19:36:13.983Z,42.3
2018-02-14T19:37:22.986Z,42.1
2018-02-14T19:38:31.630Z,42.12
2018-02-14T19:39:40.585Z,42.1
2018-02-14T19:40:49.278Z,42.2
2018-02-14T19:41:58.230Z,42.2
2018-02-14T19:43:07.452Z,42.12
2018-02-14T19:44:16.143Z,42.3
2018-02-14T19:45:25.134Z,41.91
2018-02-14T19:46:34.358Z,41.91
2018-02-14T19:47:43.047Z,41.91
2018-02-14T19:48:52.001Z,41.82
2018-02-14T19:50:01.224Z,41.82
2018-02-14T19:51:10.183Z,42
2018-02-14T19:52:19.142Z,41.82
2018-02-14T19:53:28.366Z,41.91
2018-02-14T19:54:37.322Z,41.82
2018-02-14T19:55:46.542Z,41.91
2018-02-14T19:56:55.496Z,41.82
2018-02-14T19:58:04.453Z,41.82
2018-02-14T19:59:13.409Z,41.72
2018-02-14T20:00:22.631Z,41.62
2018-02-14T20:01:31.587Z,41.82
2018-02-14T20:02:40.279Z,41.82
2018-02-14T20:03:49.304Z,41.72
2018-02-14T20:04:58.255Z,41.64
2018-02-14T20:06:06.946Z,41.43
2018-02-14T20:07:15.903Z,41.82
2018-02-14T20:08:24.860Z,41.82
2018-02-14T20:09:33.547Z,41.82
2018-02-14T20:10:42.239Z,41.62
2018-02-14T20:11:51.460Z,41.82
2018-02-14T20:13:00.416Z,41.82
2018-02-14T20:14:09.104Z,41.82
2018-02-14T20:15:17.790Z,41.72
2018-02-14T20:16:26.478Z,41.72
2018-02-14T20:17:35.169Z,41.72
2018-02-14T20:18:44.130Z,41.62
2018-02-14T20:19:52.823Z,41.72
2018-02-14T20:21:01.778Z,41.82
2018-02-14T20:22:10.733Z,41.43
2018-02-14T20:23:19.690Z,41.72